createdAt,value
2022-08-07T00:00:24.336Z,57.61
2022-08-07T00:02:53.516Z,57.78
2022-08-07T00:05:23.676Z,58.06
2022-08-07T00:08:00.170Z,57.98
2022-08-07T00:10:30.385Z,58.22
2022-08-07T00:13:17.478Z,58.61
2022-08-07T00:15:52.182Z,58.49
2022-08-07T00:18:24.528Z,58.31
2022-08-07T00:21:04.036Z,59.32
2022-08-07T00:23:37.726Z,58.47
2022-08-07T00:26:18.627Z,58.69
2022-08-07T00:28:58.365Z,58.46
2022-08-07T00:31:37.980Z,58.77
2022-08-07T00:34:09.504Z,58.46
2022-08-07T00:36:38.669Z,58.67
2022-08-07T00:39:16.193Z,58.64
2022-08-07T00:41:53.515Z,59.19
2022-08-07T00:44:28.435Z,58.53
2022-08-07T00:46:55.580Z,58.72
2022-08-07T00:49:25.002Z,58.62
2022-08-07T00:52:10.602Z,58.49
2022-08-07T00:54:41.345Z,58.77
2022-08-07T00:57:10.243Z,58.58
2022-08-07T00:59:39.252Z,58.58
2022-08-07T01:02:14.051Z,58.60
2022-08-07T01:04:56.905Z,58.43
2022-08-07T01:07:28.366Z,58.62
2022-08-07T01:10:05.754Z,58.58
2022-08-07T01:12:35.589Z,58.41
2022-08-07T01:15:04.235Z,58.75
2022-08-07T01:17:32.818Z,58.82
2022-08-07T01:20:16.678Z,59.25
2022-08-07T01:22:58.357Z,59.09
2022-08-07T01:25:40.515Z,58.84
2022-08-07T01:28:22.125Z,59.06
2022-08-07T01:30:52.847Z,59.33
2022-08-07T01:33:23.596Z,59.13
2022-08-07T01:36:06.169Z,59.32
2022-08-07T01:38:36.952Z,59.41
2022-08-07T01:41:13.969Z,59.36
2022-08-07T01:43:54.386Z,59.17
2022-08-07T01:46:21.840Z,59.59
2022-08-07T01:48:48.997Z,59.45
2022-08-07T01:51:58.615Z,59.07
2022-08-07T01:54:21.962Z,59.49
2022-08-07T01:57:26.573Z,59.63
2022-08-07T02:00:01.064Z,59.34
2022-08-07T02:03:12.016Z,59.65
2022-08-07T02:05:47.908Z,59.59
2022-08-07T02:08:27.300Z,59.65
2022-08-07T02:10:58.690Z,59.20
2022-08-07T02:13:57.732Z,59.04
2022-08-07T02:16:33.401Z,59.13
2022-08-07T02:20:07.204Z,59.45
2022-08-07T02:21:59.704Z,58.88
2022-08-07T02:24:29.426Z,58.90
2022-08-07T02:27:02.685Z,59.06
2022-08-07T02:29:34.461Z,58.90
2022-08-07T02:32:11.237Z,58.76
2022-08-07T02:34:50.988Z,58.71
2022-08-07T02:37:25.113Z,58.93
2022-08-07T02:40:11.914Z,58.74
2022-08-07T02:42:46.168Z,58.63
2022-08-07T02:45:58.287Z,58.76
2022-08-07T02:48:05.377Z,58.32
2022-08-07T02:50:40.456Z,58.31
2022-08-07T02:53:12.281Z,58.27
2022-08-07T02:56:03.370Z,58.44
2022-08-07T02:58:34.534Z,58.36
2022-08-07T03:01:04.150Z,58.09
2022-08-07T03:03:50.038Z,58.15
2022-08-07T03:06:29.641Z,57.92
2022-08-07T03:09:03.819Z,57.92
2022-08-07T03:11:38.638Z,57.90
2022-08-07T03:14:07.614Z,57.77
2022-08-07T03:16:35.715Z,57.59
2022-08-07T03:19:04.929Z,57.49
2022-08-07T03:21:33.549Z,57.41
2022-08-07T03:24:19.990Z,57.16
2022-08-07T03:26:58.556Z,57.17
2022-08-07T03:29:37.787Z,57.21
2022-08-07T03:32:13.172Z,57.15
2022-08-07T03:34:47.401Z,57.01
2022-08-07T03:37:37.367Z,56.88
2022-08-07T03:40:15.923Z,56.63
2022-08-07T03:42:45.244Z,56.41
2022-08-07T03:45:29.817Z,56.31
2022-08-07T03:48:02.099Z,56.59
2022-08-07T03:50:34.967Z,56.26
2022-08-07T03:53:03.203Z,56.50
2022-08-07T03:55:46.164Z,56.01
2022-08-07T03:59:07.359Z,56.05
2022-08-07T04:01:11.547Z,55.88
2022-08-07T04:03:53.637Z,55.98
2022-08-07T04:06:38.044Z,55.50
2022-08-07T04:09:15.613Z,55.47
2022-08-07T04:12:27.090Z,55.36
2022-08-07T04:14:38.791Z,55.09
2022-08-07T04:17:20.051Z,55.02
2022-08-07T04:19:51.873Z,54.74
2022-08-07T04:22:22.979Z,55.01
2022-08-07T04:24:51.527Z,54.65
2022-08-07T04:27:25.196Z,54.63
2022-08-07T04:30:02.284Z,54.38
2022-08-07T04:32:58.409Z,54.19
2022-08-07T04:35:35.187Z,54.09
2022-08-07T04:38:08.429Z,53.99
2022-08-07T04:40:52.522Z,53.91
2022-08-07T04:44:10.625Z,53.83
2022-08-07T04:47:05.033Z,53.13
2022-08-07T04:49:25.578Z,53.34
2022-08-07T04:52:02.175Z,53.18
2022-08-07T04:55:01.823Z,53.14
2022-08-07T04:58:11.900Z,52.96
2022-08-07T05:00:53.848Z,52.57
2022-08-07T05:04:00.604Z,52.39
2022-08-07T05:06:43.187Z,52.50
2022-08-07T05:09:28.002Z,52.44
2022-08-07T05:12:15.641Z,52.13
2022-08-07T05:15:04.583Z,52.05
2022-08-07T05:17:52.528Z,51.82
2022-08-07T05:20:31.118Z,51.14
2022-08-07T05:23:05.967Z,51.62
2022-08-07T05:26:10.662Z,50.95
2022-08-07T05:28:35.458Z,50.93
2022-08-07T05:31:04.566Z,50.87
2022-08-07T05:33:36.910Z,50.40
2022-08-07T05:36:12.086Z,50.11
2022-08-07T05:39:01.140Z,49.89
2022-08-07T05:42:02.397Z,49.57
2022-08-07T05:44:29.434Z,49.02
2022-08-07T05:47:01.079Z,48.65
2022-08-07T05:49:40.615Z,48.27
2022-08-07T05:52:11.620Z,48.34
2022-08-07T05:54:44.578Z,48.13
2022-08-07T05:57:26.648Z,48.27
2022-08-07T06:00:01.332Z,48.23
2022-08-07T06:02:40.767Z,48.31
2022-08-07T06:05:15.826Z,48.14
2022-08-07T06:08:14.885Z,48.19
2022-08-07T06:10:37.600Z,47.77
2022-08-07T06:13:06.646Z,47.90
2022-08-07T06:15:42.968Z,47.75
2022-08-07T06:18:16.503Z,48.00
2022-08-07T06:20:50.241Z,47.77
2022-08-07T06:24:38.479Z,47.74
2022-08-07T06:26:27.539Z,47.35
2022-08-07T06:29:01.232Z,47.06
2022-08-07T06:31:46.482Z,47.06
2022-08-07T06:34:20.448Z,46.79
2022-08-07T06:36:51.941Z,46.40
2022-08-07T06:40:18.024Z,46.46
2022-08-07T06:42:37.662Z,46.45
2022-08-07T06:45:11.229Z,46.44
2022-08-07T06:47:48.097Z,46.34
2022-08-07T06:50:27.723Z,46.34
2022-08-07T06:52:59.490Z,45.97
2022-08-07T06:55:48.030Z,46.15
2022-08-07T06:58:21.441Z,46.13
2022-08-07T07:01:06.285Z,46.44
2022-08-07T07:03:47.855Z,45.92
2022-08-07T07:06:23.781Z,46.10
2022-08-07T07:08:51.114Z,45.73
2022-08-07T07:12:08.389Z,45.62
2022-08-07T07:14:08.307Z,45.31
2022-08-07T07:16:49.474Z,45.05
2022-08-07T07:22:36.262Z,44.61
2022-08-07T07:26:33.868Z,44.30
2022-08-07T07:28:42.624Z,43.74
2022-08-07T07:31:21.532Z,43.68
2022-08-07T07:33:56.868Z,43.58
2022-08-07T07:36:32.219Z,43.97
2022-08-07T07:39:02.644Z,43.85
2022-08-07T07:42:02.182Z,43.94
2022-08-07T07:44:26.613Z,43.88
2022-08-07T07:47:04.253Z,43.75
2022-08-07T07:50:33.757Z,43.37
2022-08-07T07:52:32.603Z,43.18
2022-08-07T07:55:00.841Z,42.88
2022-08-07T07:57:51.770Z,42.54
2022-08-07T08:00:28.800Z,42.74
2022-08-07T08:03:05.642Z,42.32
2022-08-07T08:05:50.771Z,42.33
2022-08-07T08:08:34.704Z,41.83
2022-08-07T08:11:09.018Z,41.72
2022-08-07T08:13:54.548Z,40.97
2022-08-07T08:16:50.428Z,40.87
2022-08-07T08:20:17.446Z,40.52
2022-08-07T08:22:54.349Z,40.77
2022-08-07T08:25:48.963Z,40.65
2022-08-07T08:28:37.257Z,40.15
2022-08-07T08:31:10.805Z,39.65
2022-08-07T08:33:49.283Z,39.63
2022-08-07T08:36:30.399Z,38.85
2022-08-07T08:39:05.360Z,38.29
2022-08-07T08:41:58.695Z,36.80
2022-08-07T08:44:38.335Z,36.91
2022-08-07T08:47:26.420Z,36.31
2022-08-07T08:50:17.582Z,36.66
2022-08-07T08:53:19.409Z,36.88
2022-08-07T08:55:59.541Z,36.97
2022-08-07T08:58:50.626Z,37.01
2022-08-07T09:01:21.419Z,37.14
2022-08-07T09:04:08.216Z,36.93
2022-08-07T09:07:11.136Z,37.47
2022-08-07T09:09:42.827Z,37.69
2022-08-07T09:12:30.977Z,37.87
2022-08-07T09:16:24.812Z,37.79
2022-08-07T09:18:07.157Z,38.06
2022-08-07T09:21:05.012Z,38.21
2022-08-07T09:24:54.109Z,38.32
2022-08-07T09:26:53.277Z,38.60
2022-08-07T09:30:05.592Z,38.46
2022-08-07T09:32:49.648Z,38.91
2022-08-07T09:36:03.453Z,39.01
2022-08-07T09:39:06.258Z,38.72
2022-08-07T09:41:59.045Z,38.99
2022-08-07T09:47:24.047Z,38.75
2022-08-07T09:48:06.358Z,39.01
2022-08-07T09:50:44.588Z,38.98
2022-08-07T09:53:20.292Z,39.04
2022-08-07T09:56:05.703Z,39.20
2022-08-07T09:59:07.650Z,38.82
2022-08-07T10:02:10.928Z,38.84
2022-08-07T10:04:54.960Z,38.46
2022-08-07T10:07:52.392Z,37.82
2022-08-07T10:14:01.360Z,38.11
2022-08-07T10:16:38.023Z,37.73
2022-08-07T10:19:30.041Z,36.47
2022-08-07T10:22:16.182Z,36.70
2022-08-07T10:25:02.763Z,36.40
2022-08-07T10:27:51.135Z,36.29
2022-08-07T10:30:40.849Z,36.37
2022-08-07T10:33:16.813Z,36.03
2022-08-07T10:36:14.176Z,35.85
2022-08-07T10:38:58.775Z,35.53
2022-08-07T10:41:51.894Z,35.70
2022-08-07T10:44:38.654Z,34.76
2022-08-07T10:47:13.978Z,34.59
2022-08-07T10:49:50.990Z,34.40
2022-08-07T10:52:31.730Z,34.13
2022-08-07T10:55:37.844Z,33.83
2022-08-07T10:58:13.995Z,33.58
2022-08-07T11:00:55.877Z,33.54
2022-08-07T11:03:47.886Z,33.32
2022-08-07T11:06:29.278Z,32.50
2022-08-07T11:09:02.412Z,32.98
2022-08-07T11:11:59.303Z,32.75
2022-08-07T11:14:44.756Z,32.70
2022-08-07T11:17:42.822Z,32.93
2022-08-07T11:20:24.931Z,32.81
2022-08-07T11:23:26.262Z,32.74
2022-08-07T11:26:17.121Z,33.01
2022-08-07T11:29:13.121Z,35.88
2022-08-07T11:31:56.013Z,37.24
2022-08-07T11:34:36.990Z,39.00
2022-08-07T11:37:58.174Z,39.82
2022-08-07T11:42:01.343Z,41.58
2022-08-07T11:44:25.390Z,41.98
2022-08-07T11:47:38.999Z,42.46
2022-08-07T11:50:31.377Z,42.56
2022-08-07T11:53:05.040Z,42.98
2022-08-07T11:56:08.598Z,43.16
2022-08-07T11:58:45.742Z,43.60
2022-08-07T12:01:58.627Z,44.12
2022-08-07T12:04:50.452Z,44.39
2022-08-07T12:07:27.501Z,44.28
2022-08-07T12:10:10.544Z,44.46
2022-08-07T12:12:52.515Z,45.11
2022-08-07T12:15:46.652Z,44.78
2022-08-07T12:18:30.855Z,44.99
2022-08-07T12:21:16.002Z,44.86
2022-08-07T12:24:36.926Z,45.26
2022-08-07T12:27:05.295Z,45.02
2022-08-07T12:29:47.668Z,45.52
2022-08-07T12:32:28.016Z,45.31
2022-08-07T12:34:56.559Z,45.96
2022-08-07T12:37:28.503Z,46.85
2022-08-07T12:40:47.962Z,47.77
2022-08-07T12:43:10.122Z,47.93
2022-08-07T12:45:53.239Z,48.85
2022-08-07T12:48:28.601Z,48.88
2022-08-07T12:51:17.693Z,49.19
2022-08-07T12:54:02.638Z,49.25
2022-08-07T12:56:43.298Z,49.63
2022-08-07T12:59:22.605Z,49.90
2022-08-07T13:02:33.230Z,50.32
2022-08-07T13:05:01.363Z,49.88
2022-08-07T13:08:14.391Z,50.21
2022-08-07T13:10:51.577Z,50.46
2022-08-07T13:13:51.398Z,50.18
2022-08-07T13:16:37.549Z,51.23
2022-08-07T13:19:46.186Z,51.18
2022-08-07T13:22:45.423Z,50.78
2022-08-07T13:25:39.332Z,50.69
2022-08-07T13:28:18.721Z,49.68
2022-08-07T13:31:13.114Z,49.13
2022-08-07T13:34:30.795Z,48.16
2022-08-07T13:36:47.032Z,47.45
2022-08-07T13:40:32.818Z,47.11
2022-08-07T13:42:19.158Z,46.40
2022-08-07T13:44:55.330Z,46.37
2022-08-07T13:48:05.798Z,46.22
2022-08-07T13:50:35.671Z,46.52
2022-08-07T13:53:22.009Z,46.38
2022-08-07T13:55:54.537Z,46.74
2022-08-07T13:58:56.598Z,47.17
2022-08-07T14:01:29.384Z,47.44
2022-08-07T14:04:10.226Z,47.88
2022-08-07T14:06:47.335Z,48.40
2022-08-07T14:10:16.503Z,48.32
2022-08-07T14:12:27.453Z,48.15
2022-08-07T14:15:09.010Z,48.31
2022-08-07T14:18:23.942Z,49.00
2022-08-07T14:20:42.483Z,48.88
2022-08-07T14:23:59.382Z,49.14
2022-08-07T14:30:04.844Z,48.68
2022-08-07T14:32:05.437Z,48.99
2022-08-07T14:34:34.377Z,48.61
2022-08-07T14:37:16.814Z,47.73
2022-08-07T14:40:17.301Z,47.38
2022-08-07T14:43:01.384Z,47.54
2022-08-07T14:45:46.724Z,47.25
2022-08-07T14:48:20.445Z,47.62
2022-08-07T14:50:51.116Z,47.54
2022-08-07T14:54:03.758Z,47.66
2022-08-07T14:56:13.214Z,47.33
2022-08-07T14:58:45.384Z,47.55
2022-08-07T15:01:22.343Z,47.55
2022-08-07T15:06:40.867Z,47.97
2022-08-07T15:09:58.238Z,48.54
2022-08-07T15:12:10.068Z,48.76
2022-08-07T15:15:21.098Z,49.08
2022-08-07T15:18:03.105Z,49.39
2022-08-07T15:20:54.643Z,49.72
2022-08-07T15:26:21.194Z,49.68
2022-08-07T15:28:59.563Z,50.15
2022-08-07T15:32:01.984Z,50.10
2022-08-07T15:34:37.833Z,50.50
2022-08-07T15:40:16.029Z,49.96
2022-08-07T15:43:53.661Z,50.27
2022-08-07T15:46:32.370Z,49.95
2022-08-07T15:49:14.573Z,49.46
2022-08-07T15:54:39.253Z,50.15
2022-08-07T15:57:40.119Z,50.23
2022-08-07T16:00:04.352Z,49.57
2022-08-07T16:02:46.717Z,50.72
2022-08-07T16:05:18.601Z,50.66
2022-08-07T16:08:33.647Z,51.57
2022-08-07T16:10:52.093Z,51.38
2022-08-07T16:13:39.431Z,51.57
2022-08-07T16:16:47.946Z,52.02
2022-08-07T16:22:55.219Z,52.07
2022-08-07T16:25:52.557Z,52.20
2022-08-07T16:30:06.461Z,52.14
2022-08-07T16:31:57.960Z,52.36
2022-08-07T16:34:31.635Z,52.50
2022-08-07T16:37:01.896Z,52.49
2022-08-07T16:39:55.000Z,52.94
2022-08-07T16:42:40.274Z,52.94
2022-08-07T16:46:41.005Z,53.56
2022-08-07T16:49:10.427Z,53.81
2022-08-07T16:52:01.582Z,53.64
2022-08-07T16:55:20.042Z,53.96
2022-08-07T16:58:04.234Z,54.26
2022-08-07T17:00:41.554Z,54.35
2022-08-07T17:03:17.155Z,54.46
2022-08-07T17:06:29.825Z,54.88
2022-08-07T17:09:13.819Z,55.01
2022-08-07T17:12:04.456Z,55.30
2022-08-07T17:14:48.500Z,54.65
2022-08-07T17:17:47.371Z,55.40
2022-08-07T17:20:29.917Z,55.36
2022-08-07T17:23:16.940Z,55.09
2022-08-07T17:26:23.214Z,55.52
2022-08-07T17:30:12.619Z,55.90
2022-08-07T17:32:30.526Z,56.44
2022-08-07T17:35:51.077Z,56.63
2022-08-07T17:38:33.076Z,56.96
2022-08-07T17:42:01.662Z,57.01
2022-08-07T17:44:41.470Z,57.64
2022-08-07T17:47:38.133Z,57.53
2022-08-07T17:50:36.211Z,58.26
2022-08-07T17:54:01.222Z,58.27
2022-08-07T17:56:49.444Z,57.97
2022-08-07T18:05:21.222Z,58.47
2022-08-07T18:09:00.587Z,58.68
2022-08-07T18:14:55.746Z,59.12
2022-08-07T18:18:45.242Z,59.65
2022-08-07T18:21:51.510Z,60.05
2022-08-07T18:24:47.229Z,60.29
2022-08-07T18:27:40.243Z,59.98
2022-08-07T18:30:32.357Z,60.80
2022-08-07T18:33:54.879Z,61.34
2022-08-07T18:36:54.035Z,61.55
2022-08-07T18:40:08.010Z,61.54
2022-08-07T18:43:06.547Z,61.66
2022-08-07T18:46:26.652Z,61.85
2022-08-07T18:50:03.404Z,61.28
2022-08-07T18:52:37.675Z,61.96
2022-08-07T18:55:08.393Z,62.17
2022-08-07T18:58:17.185Z,62.38
2022-08-07T19:01:05.740Z,62.02
2022-08-07T19:03:49.677Z,62.17
2022-08-07T19:06:33.792Z,62.32
2022-08-07T19:09:51.034Z,61.79
2022-08-07T19:12:17.983Z,60.75
2022-08-07T19:16:02.466Z,61.84
2022-08-07T19:18:34.712Z,62.27
2022-08-07T19:21:47.621Z,61.72
2022-08-07T19:24:07.943Z,62.09
2022-08-07T19:27:08.959Z,62.31
2022-08-07T19:31:05.964Z,62.07
2022-08-07T19:32:26.002Z,62.33
2022-08-07T19:35:03.530Z,62.94
2022-08-07T19:37:57.363Z,62.63
2022-08-07T19:40:31.600Z,62.90
2022-08-07T19:43:08.801Z,63.27
2022-08-07T19:46:07.627Z,63.26
2022-08-07T19:48:42.707Z,64.07
2022-08-07T19:51:19.275Z,63.14
2022-08-07T19:54:33.550Z,63.71
2022-08-07T19:57:51.537Z,63.49
2022-08-07T19:59:40.938Z,63.37
2022-08-07T20:02:19.127Z,63.55
2022-08-07T20:04:50.266Z,63.13
2022-08-07T20:07:46.156Z,63.35
2022-08-07T20:10:36.108Z,63.25
2022-08-07T20:13:23.918Z,63.80
2022-08-07T20:15:58.408Z,63.40
2022-08-07T20:18:33.544Z,63.43
2022-08-07T20:21:14.843Z,63.75
2022-08-07T20:23:57.919Z,64.02
2022-08-07T20:26:38.687Z,64.13
2022-08-07T20:29:48.180Z,64.52
2022-08-07T20:32:11.414Z,65.18
2022-08-07T20:34:52.147Z,65.38
2022-08-07T20:37:25.561Z,66.74
2022-08-07T20:40:02.539Z,65.99
2022-08-07T20:42:33.659Z,66.52
2022-08-07T20:45:33.265Z,67.21
2022-08-07T20:47:57.870Z,67.60
2022-08-07T20:50:30.382Z,67.95
2022-08-07T20:52:57.951Z,68.17
2022-08-07T20:55:25.364Z,68.23
2022-08-07T20:58:03.305Z,68.73
2022-08-07T21:00:44.226Z,68.76
2022-08-07T21:03:16.208Z,68.56
2022-08-07T21:05:58.279Z,69.03
2022-08-07T21:08:38.158Z,68.77
2022-08-07T21:11:16.964Z,69.53
2022-08-07T21:14:29.357Z,69.61
2022-08-07T21:17:06.569Z,69.41
2022-08-07T21:19:51.659Z,68.90
2022-08-07T21:22:33.337Z,68.90
2022-08-07T21:25:29.798Z,70.25
2022-08-07T21:28:18.912Z,70.12
2022-08-07T21:31:12.530Z,69.82
2022-08-07T21:33:48.594Z,69.45
2022-08-07T21:36:50.387Z,70.03
2022-08-07T21:39:46.706Z,69.04
2022-08-07T21:46:05.273Z,69.44
2022-08-07T21:48:28.544Z,69.21
2022-08-07T21:51:02.315Z,69.20
2022-08-07T21:53:53.032Z,69.89
2022-08-07T21:56:40.260Z,70.05
2022-08-07T22:00:02.899Z,70.31
2022-08-07T22:02:31.194Z,70.11
2022-08-07T22:05:02.446Z,69.78
2022-08-07T22:07:48.608Z,69.81
2022-08-07T22:10:26.099Z,70.13
2022-08-07T22:12:57.194Z,70.62
2022-08-07T22:16:43.510Z,71.08
2022-08-07T22:18:28.160Z,70.18
2022-08-07T22:20:59.745Z,70.52
2022-08-07T22:23:40.177Z,71.33
2022-08-07T22:26:38.090Z,72.04
2022-08-07T22:29:34.077Z,72.15
2022-08-07T22:32:35.678Z,72.58
2022-08-07T22:35:04.956Z,71.45
2022-08-07T22:38:03.255Z,71.65
2022-08-07T22:40:50.123Z,72.06
2022-08-07T22:43:34.103Z,72.35
2022-08-07T22:47:01.867Z,73.24
2022-08-07T22:49:18.193Z,72.21
2022-08-07T22:52:07.136Z,73.49
2022-08-07T22:54:51.632Z,73.79
2022-08-07T22:57:40.858Z,72.70
2022-08-07T23:00:31.014Z,73.97
2022-08-07T23:03:23.770Z,73.85
2022-08-07T23:06:10.186Z,73.02
2022-08-07T23:10:00.772Z,74.25
2022-08-07T23:12:32.604Z,74.21
2022-08-07T23:16:13.063Z,74.65
2022-08-07T23:19:51.498Z,74.69
2022-08-07T23:22:52.678Z,74.37
2022-08-07T23:25:41.673Z,74.63
2022-08-07T23:28:54.429Z,74.98
2022-08-07T23:34:19.025Z,74.79
2022-08-07T23:35:01.029Z,74.95
2022-08-07T23:37:35.030Z,74.22
2022-08-07T23:40:20.576Z,75.30
2022-08-07T23:43:38.028Z,75.62
2022-08-07T23:46:30.453Z,75.24
2022-08-07T23:49:50.546Z,75.32
2022-08-07T23:52:58.189Z,75.15
2022-08-07T23:55:52.962Z,74.45
2022-08-07T23:58:29.957Z,75.53
